sensor_id;sensor_type;location;lat;lon;timestamp;noise_LAeq;noise_LA_min;noise_LA_max;noise_LA01;noise_LA95
70245;Laerm;57637;49.272;8.590;2023-09-08T00:02:03;43.91;40.06;49.69;;
70245;Laerm;57637;49.272;8.590;2023-09-08T00:04:29;43.08;39.87;47.44;;
70245;Laerm;57637;49.272;8.590;2023-09-08T00:06:54;43.46;40.46;48.05;;
70245;Laerm;57637;49.272;8.590;2023-09-08T00:09:19;43.89;39.74;50.45;;
70245;Laerm;57637;49.272;8.590;2023-09-08T00:11:45;44.51;40.42;50.91;;
70245;Laerm;57637;49.272;8.590;2023-09-08T00:14:10;46.06;41.08;52.74;;
70245;Laerm;57637;49.272;8.590;2023-09-08T00:16:35;45.17;39.51;52.09;;
70245;Laerm;57637;49.272;8.590;2023-09-08T00:19:02;45.42;38.75;52.25;;
70245;Laerm;57637;49.272;8.590;2023-09-08T00:21:27;47.64;41.57;56.23;;
70245;Laerm;57637;49.272;8.590;2023-09-08T00:23:53;46.45;41.12;55.04;;
70245;Laerm;57637;49.272;8.590;2023-09-08T00:26:19;48.08;42.79;54.54;;
70245;Laerm;57637;49.272;8.590;2023-09-08T00:28:45;47.93;43.12;58.32;;
70245;Laerm;57637;49.272;8.590;2023-09-08T00:31:10;46.05;39.57;54.06;;
70245;Laerm;57637;49.272;8.590;2023-09-08T00:33:36;47.22;42.21;55.77;;
70245;Laerm;57637;49.272;8.590;2023-09-08T00:36:02;47.69;43.21;54.18;;
70245;Laerm;57637;49.272;8.590;2023-09-08T00:38:28;45.85;41.37;52.71;;
70245;Laerm;57637;49.272;8.590;2023-09-08T00:40:53;45.93;41.56;51.82;;
70245;Laerm;57637;49.272;8.590;2023-09-08T00:43:18;47.28;42.73;52.96;;
70245;Laerm;57637;49.272;8.590;2023-09-08T00:45:45;46.79;40.99;58.02;;
70245;Laerm;57637;49.272;8.590;2023-09-08T00:48:11;46.51;41.65;54.82;;
70245;Laerm;57637;49.272;8.590;2023-09-08T00:50:37;45.96;42.13;50.56;;
70245;Laerm;57637;49.272;8.590;2023-09-08T00:53:04;47.06;41.59;54.04;;
70245;Laerm;57637;49.272;8.590;2023-09-08T00:55:30;47.46;41.35;53.78;;
70245;Laerm;57637;49.272;8.590;2023-09-08T00:57:56;48.92;44.09;58.37;;
70245;Laerm;57637;49.272;8.590;2023-09-08T01:00:24;49.04;43.64;56.06;;
70245;Laerm;57637;49.272;8.590;2023-09-08T01:02:49;48.26;43.80;53.51;;
70245;Laerm;57637;49.272;8.590;2023-09-08T01:05:15;49.24;44.06;55.62;;
70245;Laerm;57637;49.272;8.590;2023-09-08T01:07:41;48.04;42.79;56.15;;
70245;Laerm;57637;49.272;8.590;2023-09-08T01:10:07;49.01;44.00;55.94;;
70245;Laerm;57637;49.272;8.590;2023-09-08T01:12:33;49.94;44.61;60.37;;
70245;Laerm;57637;49.272;8.590;2023-09-08T01:15:03;49.19;44.76;55.96;;
70245;Laerm;57637;49.272;8.590;2023-09-08T01:17:30;50.33;44.78;57.83;;
70245;Laerm;57637;49.272;8.590;2023-09-08T01:19:56;49.95;45.89;57.07;;
70245;Laerm;57637;49.272;8.590;2023-09-08T01:25:22;49.09;45.40;56.75;;
70245;Laerm;57637;49.272;8.590;2023-09-08T01:27:56;48.94;44.87;54.46;;
70245;Laerm;57637;49.272;8.590;2023-09-08T01:30:24;48.61;43.14;53.29;;
70245;Laerm;57637;49.272;8.590;2023-09-08T01:32:50;48.92;44.18;53.44;;
70245;Laerm;57637;49.272;8.590;2023-09-08T01:35:16;49.56;44.99;55.50;;
70245;Laerm;57637;49.272;8.590;2023-09-08T01:37:44;48.91;43.32;57.59;;
70245;Laerm;57637;49.272;8.590;2023-09-08T01:40:10;48.79;44.41;54.19;;
70245;Laerm;57637;49.272;8.590;2023-09-08T01:42:39;49.77;44.96;54.41;;
70245;Laerm;57637;49.272;8.590;2023-09-08T01:45:06;48.53;43.89;54.09;;
70245;Laerm;57637;49.272;8.590;2023-09-08T01:47:32;48.57;43.97;56.34;;
70245;Laerm;57637;49.272;8.590;2023-09-08T01:49:57;49.32;44.59;54.72;;
70245;Laerm;57637;49.272;8.590;2023-09-08T01:52:24;48.92;44.99;54.11;;
70245;Laerm;57637;49.272;8.590;2023-09-08T01:54:49;49.02;45.03;55.05;;
70245;Laerm;57637;49.272;8.590;2023-09-08T01:57:15;48.25;44.40;53.97;;
70245;Laerm;57637;49.272;8.590;2023-09-08T01:59:40;48.95;44.59;56.08;;
70245;Laerm;57637;49.272;8.590;2023-09-08T02:02:05;48.00;43.74;53.72;;
70245;Laerm;57637;49.272;8.590;2023-09-08T02:04:31;49.79;43.83;54.62;;
70245;Laerm;57637;49.272;8.590;2023-09-08T02:06:57;49.92;44.24;60.28;;
70245;Laerm;57637;49.272;8.590;2023-09-08T02:09:33;49.02;43.16;57.27;;
70245;Laerm;57637;49.272;8.590;2023-09-08T02:11:59;48.19;44.10;59.08;;
70245;Laerm;57637;49.272;8.590;2023-09-08T02:14:24;47.18;42.89;53.18;;
70245;Laerm;57637;49.272;8.590;2023-09-08T02:16:50;46.90;42.89;56.45;;
70245;Laerm;57637;49.272;8.590;2023-09-08T02:19:15;47.52;43.18;59.80;;
70245;Laerm;57637;49.272;8.590;2023-09-08T02:21:40;48.19;44.33;56.12;;
70245;Laerm;57637;49.272;8.590;2023-09-08T02:24:06;47.63;43.48;53.65;;
70245;Laerm;57637;49.272;8.590;2023-09-08T02:26:31;47.88;43.70;55.12;;
70245;Laerm;57637;49.272;8.590;2023-09-08T02:28:59;48.33;43.77;53.66;;
70245;Laerm;57637;49.272;8.590;2023-09-08T02:31:26;48.53;44.02;56.55;;
70245;Laerm;57637;49.272;8.590;2023-09-08T02:33:51;48.27;44.04;55.49;;
70245;Laerm;57637;49.272;8.590;2023-09-08T02:36:16;48.24;44.20;53.57;;
70245;Laerm;57637;49.272;8.590;2023-09-08T02:38:42;49.35;45.01;56.31;;
70245;Laerm;57637;49.272;8.590;2023-09-08T02:41:07;49.85;44.42;56.68;;
70245;Laerm;57637;49.272;8.590;2023-09-08T02:43:32;49.70;45.52;54.73;;
70245;Laerm;57637;49.272;8.590;2023-09-08T02:45:58;49.04;45.24;53.83;;
70245;Laerm;57637;49.272;8.590;2023-09-08T02:48:24;49.47;45.66;55.75;;
70245;Laerm;57637;49.272;8.590;2023-09-08T02:50:50;48.78;44.53;55.59;;
70245;Laerm;57637;49.272;8.590;2023-09-08T02:53:15;48.75;44.61;54.52;;
70245;Laerm;57637;49.272;8.590;2023-09-08T02:55:40;49.27;45.22;53.42;;
70245;Laerm;57637;49.272;8.590;2023-09-08T02:58:06;50.01;46.18;58.43;;
70245;Laerm;57637;49.272;8.590;2023-09-08T03:00:31;49.30;45.76;53.58;;
70245;Laerm;57637;49.272;8.590;2023-09-08T03:02:56;48.97;44.40;60.44;;
70245;Laerm;57637;49.272;8.590;2023-09-08T03:05:22;49.08;45.32;54.32;;
70245;Laerm;57637;49.272;8.590;2023-09-08T03:07:48;49.33;45.09;57.59;;
70245;Laerm;57637;49.272;8.590;2023-09-08T03:10:14;49.24;44.46;55.04;;
70245;Laerm;57637;49.272;8.590;2023-09-08T03:12:39;49.68;45.97;53.78;;
70245;Laerm;57637;49.272;8.590;2023-09-08T03:15:05;49.87;45.69;54.03;;
70245;Laerm;57637;49.272;8.590;2023-09-08T03:17:31;49.95;45.13;56.16;;
70245;Laerm;57637;49.272;8.590;2023-09-08T03:19:56;49.61;45.17;55.42;;
70245;Laerm;57637;49.272;8.590;2023-09-08T03:22:21;50.02;46.19;56.69;;
70245;Laerm;57637;49.272;8.590;2023-09-08T03:24:47;49.40;44.97;54.71;;
70245;Laerm;57637;49.272;8.590;2023-09-08T03:27:12;50.59;46.85;54.63;;
70245;Laerm;57637;49.272;8.590;2023-09-08T03:29:37;49.52;45.62;53.85;;
70245;Laerm;57637;49.272;8.590;2023-09-08T03:32:03;49.95;46.15;54.24;;
70245;Laerm;57637;49.272;8.590;2023-09-08T03:34:28;50.81;47.63;54.89;;
70245;Laerm;57637;49.272;8.590;2023-09-08T03:36:54;49.46;45.40;54.38;;
70245;Laerm;57637;49.272;8.590;2023-09-08T03:39:19;50.16;46.26;55.71;;
70245;Laerm;57637;49.272;8.590;2023-09-08T03:41:45;50.21;46.48;58.80;;
70245;Laerm;57637;49.272;8.590;2023-09-08T03:44:11;49.78;45.80;54.78;;
70245;Laerm;57637;49.272;8.590;2023-09-08T03:46:36;49.80;45.88;53.30;;
70245;Laerm;57637;49.272;8.590;2023-09-08T03:49:02;49.27;45.68;53.69;;
70245;Laerm;57637;49.272;8.590;2023-09-08T03:51:28;49.75;46.10;61.54;;
70245;Laerm;57637;49.272;8.590;2023-09-08T03:53:53;49.49;45.30;65.48;;
70245;Laerm;57637;49.272;8.590;2023-09-08T03:56:19;49.60;46.61;52.84;;
70245;Laerm;57637;49.272;8.590;2023-09-08T03:58:46;50.70;46.40;71.98;;
70245;Laerm;57637;49.272;8.590;2023-09-08T04:01:11;49.88;46.16;64.37;;
70245;Laerm;57637;49.272;8.590;2023-09-08T04:03:36;49.91;46.17;55.89;;
70245;Laerm;57637;49.272;8.590;2023-09-08T04:06:02;50.52;46.86;55.83;;
70245;Laerm;57637;49.272;8.590;2023-09-08T04:08:27;50.61;46.80;56.04;;
70245;Laerm;57637;49.272;8.590;2023-09-08T04:10:52;51.37;48.18;56.86;;
70245;Laerm;57637;49.272;8.590;2023-09-08T04:13:18;53.01;47.53;73.82;;
70245;Laerm;57637;49.272;8.590;2023-09-08T04:15:43;51.17;47.88;55.05;;
70245;Laerm;57637;49.272;8.590;2023-09-08T04:18:08;51.20;48.27;54.74;;
70245;Laerm;57637;49.272;8.590;2023-09-08T04:20:37;51.07;48.31;54.03;;
70245;Laerm;57637;49.272;8.590;2023-09-08T04:23:02;51.94;48.47;62.02;;
70245;Laerm;57637;49.272;8.590;2023-09-08T04:25:28;52.25;48.43;59.50;;
70245;Laerm;57637;49.272;8.590;2023-09-08T04:27:53;51.01;47.44;55.56;;
70245;Laerm;57637;49.272;8.590;2023-09-08T04:30:18;51.45;47.91;57.14;;
70245;Laerm;57637;49.272;8.590;2023-09-08T04:32:44;51.26;47.89;58.35;;
70245;Laerm;57637;49.272;8.590;2023-09-08T04:35:09;51.70;48.21;58.94;;
70245;Laerm;57637;49.272;8.590;2023-09-08T04:37:35;52.67;48.74;71.45;;
70245;Laerm;57637;49.272;8.590;2023-09-08T04:40:02;51.03;47.34;54.56;;
70245;Laerm;57637;49.272;8.590;2023-09-08T04:42:28;51.51;47.83;56.55;;
70245;Laerm;57637;49.272;8.590;2023-09-08T04:44:53;51.01;47.86;55.44;;
70245;Laerm;57637;49.272;8.590;2023-09-08T04:47:19;50.53;47.25;57.23;;
70245;Laerm;57637;49.272;8.590;2023-09-08T04:49:44;49.53;46.27;55.93;;
70245;Laerm;57637;49.272;8.590;2023-09-08T04:52:10;49.07;45.70;54.01;;
70245;Laerm;57637;49.272;8.590;2023-09-08T04:54:36;50.46;46.14;70.85;;
70245;Laerm;57637;49.272;8.590;2023-09-08T04:57:02;48.73;45.62;60.04;;
70245;Laerm;57637;49.272;8.590;2023-09-08T04:59:27;49.59;44.94;54.36;;
70245;Laerm;57637;49.272;8.590;2023-09-08T05:01:53;50.17;45.88;56.96;;
70245;Laerm;57637;49.272;8.590;2023-09-08T05:04:19;49.84;46.14;60.86;;
70245;Laerm;57637;49.272;8.590;2023-09-08T05:06:44;50.66;46.88;65.83;;
70245;Laerm;57637;49.272;8.590;2023-09-08T05:09:10;50.72;47.43;57.09;;
70245;Laerm;57637;49.272;8.590;2023-09-08T05:11:35;50.53;47.26;56.89;;
70245;Laerm;57637;49.272;8.590;2023-09-08T05:14:01;51.35;47.70;57.54;;
70245;Laerm;57637;49.272;8.590;2023-09-08T05:16:27;51.13;47.36;60.13;;
70245;Laerm;57637;49.272;8.590;2023-09-08T05:19:10;51.29;48.45;54.45;;
70245;Laerm;57637;49.272;8.590;2023-09-08T05:21:36;51.99;47.20;67.27;;
70245;Laerm;57637;49.272;8.590;2023-09-08T05:24:02;51.84;47.99;64.78;;
70245;Laerm;57637;49.272;8.590;2023-09-08T05:26:27;53.18;48.03;62.99;;
70245;Laerm;57637;49.272;8.590;2023-09-08T05:28:53;51.75;48.00;58.09;;
70245;Laerm;57637;49.272;8.590;2023-09-08T05:31:18;52.11;48.64;62.66;;
70245;Laerm;57637;49.272;8.590;2023-09-08T05:33:44;52.76;48.21;62.96;;
70245;Laerm;57637;49.272;8.590;2023-09-08T05:36:09;52.99;48.16;68.48;;
70245;Laerm;57637;49.272;8.590;2023-09-08T05:38:34;53.39;48.49;64.31;;
70245;Laerm;57637;49.272;8.590;2023-09-08T05:41:00;51.07;47.50;60.20;;
70245;Laerm;57637;49.272;8.590;2023-09-08T05:43:25;51.37;47.49;66.39;;
70245;Laerm;57637;49.272;8.590;2023-09-08T05:45:51;51.35;47.80;55.43;;
70245;Laerm;57637;49.272;8.590;2023-09-08T05:48:16;50.72;47.27;61.52;;
70245;Laerm;57637;49.272;8.590;2023-09-08T05:50:42;50.60;47.12;62.61;;
70245;Laerm;57637;49.272;8.590;2023-09-08T05:53:08;50.45;46.25;58.79;;
70245;Laerm;57637;49.272;8.590;2023-09-08T05:55:33;50.59;46.76;60.96;;
70245;Laerm;57637;49.272;8.590;2023-09-08T05:57:58;50.36;46.26;58.94;;
70245;Laerm;57637;49.272;8.590;2023-09-08T06:00:24;49.63;45.98;55.23;;
70245;Laerm;57637;49.272;8.590;2023-09-08T06:02:49;49.45;45.64;58.72;;
70245;Laerm;57637;49.272;8.590;2023-09-08T06:05:14;50.37;47.01;54.94;;
70245;Laerm;57637;49.272;8.590;2023-09-08T06:07:40;51.07;47.85;57.71;;
70245;Laerm;57637;49.272;8.590;2023-09-08T06:10:06;51.13;47.21;55.85;;
70245;Laerm;57637;49.272;8.590;2023-09-08T06:12:31;51.54;47.47;56.72;;
70245;Laerm;57637;49.272;8.590;2023-09-08T06:14:56;51.34;48.13;59.73;;
70245;Laerm;57637;49.272;8.590;2023-09-08T06:17:22;50.65;47.03;57.43;;
70245;Laerm;57637;49.272;8.590;2023-09-08T06:19:47;50.64;46.76;57.06;;
70245;Laerm;57637;49.272;8.590;2023-09-08T06:22:13;50.33;46.93;54.31;;
70245;Laerm;57637;49.272;8.590;2023-09-08T06:24:38;50.77;47.34;59.78;;
70245;Laerm;57637;49.272;8.590;2023-09-08T06:27:04;50.38;47.13;54.18;;
70245;Laerm;57637;49.272;8.590;2023-09-08T06:29:29;50.06;47.01;55.13;;
70245;Laerm;57637;49.272;8.590;2023-09-08T06:31:54;52.40;45.92;85.54;;
70245;Laerm;57637;49.272;8.590;2023-09-08T06:34:20;58.05;46.49;69.62;;
70245;Laerm;57637;49.272;8.590;2023-09-08T06:36:48;48.87;45.02;61.65;;
70245;Laerm;57637;49.272;8.590;2023-09-08T06:39:14;55.63;44.58;66.49;;
70245;Laerm;57637;49.272;8.590;2023-09-08T06:41:39;50.53;42.10;66.38;;
70245;Laerm;57637;49.272;8.590;2023-09-08T06:44:05;55.18;42.35;68.43;;
70245;Laerm;57637;49.272;8.590;2023-09-08T06:46:30;49.35;41.82;64.19;;
70245;Laerm;57637;49.272;8.590;2023-09-08T06:48:55;45.59;42.09;59.19;;
70245;Laerm;57637;49.272;8.590;2023-09-08T06:51:21;44.64;41.33;52.02;;
70245;Laerm;57637;49.272;8.590;2023-09-08T06:53:54;53.37;41.07;69.55;;
70245;Laerm;57637;49.272;8.590;2023-09-08T06:56:20;53.14;40.43;67.74;;
70245;Laerm;57637;49.272;8.590;2023-09-08T06:58:45;54.00;40.76;67.88;;
70245;Laerm;57637;49.272;8.590;2023-09-08T07:01:11;51.34;40.85;67.34;;
70245;Laerm;57637;49.272;8.590;2023-09-08T07:03:36;43.14;39.57;53.46;;
70245;Laerm;57637;49.272;8.590;2023-09-08T07:06:02;55.47;39.30;70.58;;
70245;Laerm;57637;49.272;8.590;2023-09-08T07:08:28;50.00;38.42;68.44;;
70245;Laerm;57637;49.272;8.590;2023-09-08T07:10:54;51.17;37.97;66.56;;
70245;Laerm;57637;49.272;8.590;2023-09-08T07:13:19;50.08;37.80;65.43;;
70245;Laerm;57637;49.272;8.590;2023-09-08T07:15:44;41.73;36.91;58.26;;
70245;Laerm;57637;49.272;8.590;2023-09-08T07:18:10;49.78;37.73;64.03;;
70245;Laerm;57637;49.272;8.590;2023-09-08T07:20:35;46.89;38.54;62.54;;
70245;Laerm;57637;49.272;8.590;2023-09-08T07:23:01;48.50;38.66;63.20;;
70245;Laerm;57637;49.272;8.590;2023-09-08T07:25:26;49.75;41.51;61.14;;
70245;Laerm;57637;49.272;8.590;2023-09-08T07:27:51;50.78;37.83;64.84;;
70245;Laerm;57637;49.272;8.590;2023-09-08T07:30:19;53.67;38.70;63.93;;
70245;Laerm;57637;49.272;8.590;2023-09-08T07:32:44;52.36;38.76;68.09;;
70245;Laerm;57637;49.272;8.590;2023-09-08T07:35:10;45.49;39.89;55.16;;
70245;Laerm;57637;49.272;8.590;2023-09-08T07:37:39;45.61;39.07;51.66;;
70245;Laerm;57637;49.272;8.590;2023-09-08T07:40:07;45.75;37.40;57.13;;
70245;Laerm;57637;49.272;8.590;2023-09-08T07:42:32;40.56;36.68;55.31;;
70245;Laerm;57637;49.272;8.590;2023-09-08T07:44:58;40.93;37.15;51.51;;
70245;Laerm;57637;49.272;8.590;2023-09-08T07:47:23;41.80;37.24;61.73;;
70245;Laerm;57637;49.272;8.590;2023-09-08T07:49:49;44.71;36.84;63.19;;
70245;Laerm;57637;49.272;8.590;2023-09-08T07:52:14;40.58;36.93;50.35;;
70245;Laerm;57637;49.272;8.590;2023-09-08T07:54:40;41.85;37.06;64.05;;
70245;Laerm;57637;49.272;8.590;2023-09-08T07:57:05;41.05;36.89;50.31;;
70245;Laerm;57637;49.272;8.590;2023-09-08T07:59:30;47.69;38.11;61.51;;
70245;Laerm;57637;49.272;8.590;2023-09-08T08:01:59;42.41;37.88;61.15;;
70245;Laerm;57637;49.272;8.590;2023-09-08T08:04:24;40.87;36.72;51.23;;
70245;Laerm;57637;49.272;8.590;2023-09-08T08:06:49;40.46;36.35;51.93;;
70245;Laerm;57637;49.272;8.590;2023-09-08T08:09:15;40.96;36.87;57.44;;
70245;Laerm;57637;49.272;8.590;2023-09-08T08:11:40;48.30;36.20;61.04;;
70245;Laerm;57637;49.272;8.590;2023-09-08T08:14:06;39.82;35.40;53.32;;
70245;Laerm;57637;49.272;8.590;2023-09-08T08:16:31;40.21;35.84;53.16;;
70245;Laerm;57637;49.272;8.590;2023-09-08T08:18:56;40.48;35.71;49.98;;
70245;Laerm;57637;49.272;8.590;2023-09-08T08:21:22;40.01;36.38;51.06;;
70245;Laerm;57637;49.272;8.590;2023-09-08T08:23:48;39.18;35.06;53.70;;
70245;Laerm;57637;49.272;8.590;2023-09-08T08:26:13;40.21;34.80;58.28;;
70245;Laerm;57637;49.272;8.590;2023-09-08T08:28:39;39.14;35.61;58.06;;
70245;Laerm;57637;49.272;8.590;2023-09-08T08:31:04;43.08;35.84;56.74;;
70245;Laerm;57637;49.272;8.590;2023-09-08T08:33:30;41.56;35.72;58.89;;
70245;Laerm;57637;49.272;8.590;2023-09-08T08:35:56;48.90;35.55;64.66;;
70245;Laerm;57637;49.272;8.590;2023-09-08T08:38:21;46.94;34.41;63.23;;
70245;Laerm;57637;49.272;8.590;2023-09-08T08:40:47;45.26;34.56;61.85;;
70245;Laerm;57637;49.272;8.590;2023-09-08T08:43:12;50.22;34.78;63.77;;
70245;Laerm;57637;49.272;8.590;2023-09-08T08:45:38;49.52;35.66;65.24;;
70245;Laerm;57637;49.272;8.590;2023-09-08T08:48:07;43.11;35.45;59.00;;
70245;Laerm;57637;49.272;8.590;2023-09-08T08:50:34;42.45;35.08;59.65;;
70245;Laerm;57637;49.272;8.590;2023-09-08T08:53:00;46.28;35.94;59.46;;
70245;Laerm;57637;49.272;8.590;2023-09-08T08:55:46;47.53;35.40;62.79;;
70245;Laerm;57637;49.272;8.590;2023-09-08T08:58:12;38.45;34.36;56.81;;
70245;Laerm;57637;49.272;8.590;2023-09-08T09:00:39;45.97;35.55;72.95;;
70245;Laerm;57637;49.272;8.590;2023-09-08T09:03:05;39.41;34.69;48.75;;
70245;Laerm;57637;49.272;8.590;2023-09-08T09:05:33;45.16;34.74;69.26;;
70245;Laerm;57637;49.272;8.590;2023-09-08T09:08:01;45.28;34.85;67.52;;
70245;Laerm;57637;49.272;8.590;2023-09-08T09:10:30;49.04;34.93;63.29;;
70245;Laerm;57637;49.272;8.590;2023-09-08T09:12:56;50.51;35.07;78.79;;
70245;Laerm;57637;49.272;8.590;2023-09-08T09:15:28;39.93;34.05;65.38;;
70245;Laerm;57637;49.272;8.590;2023-09-08T09:18:04;49.97;34.60;67.31;;
70245;Laerm;57637;49.272;8.590;2023-09-08T09:20:30;45.41;35.44;65.94;;
70245;Laerm;57637;49.272;8.590;2023-09-08T09:22:56;47.76;35.25;63.99;;
70245;Laerm;57637;49.272;8.590;2023-09-08T09:25:25;49.53;33.70;62.54;;
70245;Laerm;57637;49.272;8.590;2023-09-08T09:27:55;46.43;36.39;66.25;;
70245;Laerm;57637;49.272;8.590;2023-09-08T09:30:21;54.26;35.25;70.14;;
70245;Laerm;57637;49.272;8.590;2023-09-08T09:32:47;44.02;34.45;67.11;;
70245;Laerm;57637;49.272;8.590;2023-09-08T09:35:15;50.45;35.53;63.45;;
70245;Laerm;57637;49.272;8.590;2023-09-08T09:37:41;45.82;35.77;64.00;;
70245;Laerm;57637;49.272;8.590;2023-09-08T09:40:07;39.06;34.17;58.62;;
70245;Laerm;57637;49.272;8.590;2023-09-08T09:42:37;47.89;35.88;63.46;;
70245;Laerm;57637;49.272;8.590;2023-09-08T09:45:04;41.27;34.87;56.79;;
70245;Laerm;57637;49.272;8.590;2023-09-08T09:47:30;40.85;34.02;60.80;;
70245;Laerm;57637;49.272;8.590;2023-09-08T09:49:55;45.00;34.99;66.64;;
70245;Laerm;57637;49.272;8.590;2023-09-08T09:52:24;47.78;34.40;71.58;;
70245;Laerm;57637;49.272;8.590;2023-09-08T09:54:52;47.97;34.36;73.84;;
70245;Laerm;57637;49.272;8.590;2023-09-08T09:57:21;44.51;34.57;71.03;;
70245;Laerm;57637;49.272;8.590;2023-09-08T09:59:47;45.63;34.19;67.31;;
70245;Laerm;57637;49.272;8.590;2023-09-08T10:02:17;45.03;34.46;71.51;;
70245;Laerm;57637;49.272;8.590;2023-09-08T10:04:49;51.58;34.25;81.10;;
70245;Laerm;57637;49.272;8.590;2023-09-08T10:07:16;51.08;35.13;79.68;;
70245;Laerm;57637;49.272;8.590;2023-09-08T10:09:41;49.72;34.42;74.75;;
70245;Laerm;57637;49.272;8.590;2023-09-08T10:12:08;49.17;34.78;72.86;;
70245;Laerm;57637;49.272;8.590;2023-09-08T10:14:36;45.29;34.31;70.99;;
70245;Laerm;57637;49.272;8.590;2023-09-08T10:17:05;42.70;33.58;51.27;;
70245;Laerm;57637;49.272;8.590;2023-09-08T10:19:34;38.87;34.38;60.06;;
70245;Laerm;57637;49.272;8.590;2023-09-08T10:22:07;41.75;34.12;63.04;;
70245;Laerm;57637;49.272;8.590;2023-09-08T10:24:38;38.13;33.01;60.37;;
70245;Laerm;57637;49.272;8.590;2023-09-08T10:27:11;40.29;32.73;64.22;;
70245;Laerm;57637;49.272;8.590;2023-09-08T10:30:00;35.85;32.35;53.47;;
70245;Laerm;57637;49.272;8.590;2023-09-08T10:32:26;36.14;31.93;49.60;;
70245;Laerm;57637;49.272;8.590;2023-09-08T10:35:03;38.77;32.71;66.63;;
70245;Laerm;57637;49.272;8.590;2023-09-08T10:37:48;41.30;33.43;58.39;;
70245;Laerm;57637;49.272;8.590;2023-09-08T10:43:09;44.19;33.41;57.54;;
70245;Laerm;57637;49.272;8.590;2023-09-08T10:45:34;50.52;33.54;67.74;;
70245;Laerm;57637;49.272;8.590;2023-09-08T10:48:02;42.97;33.65;63.31;;
70245;Laerm;57637;49.272;8.590;2023-09-08T10:50:33;52.15;34.86;63.35;;
70245;Laerm;57637;49.272;8.590;2023-09-08T10:53:11;52.18;45.26;63.55;;
70245;Laerm;57637;49.272;8.590;2023-09-08T10:55:55;52.11;36.04;58.53;;
70245;Laerm;57637;49.272;8.590;2023-09-08T11:01:04;48.21;33.77;58.47;;
70245;Laerm;57637;49.272;8.590;2023-09-08T11:06:05;48.99;43.21;55.12;;
70245;Laerm;57637;49.272;8.590;2023-09-08T11:08:32;43.34;33.66;51.95;;
70245;Laerm;57637;49.272;8.590;2023-09-08T11:10:58;38.01;33.74;48.44;;
70245;Laerm;57637;49.272;8.590;2023-09-08T11:13:25;39.58;34.25;54.00;;
70245;Laerm;57637;49.272;8.590;2023-09-08T11:15:55;39.28;34.39;58.78;;
70245;Laerm;57637;49.272;8.590;2023-09-08T11:18:27;41.43;34.58;61.64;;
70245;Laerm;57637;49.272;8.590;2023-09-08T11:20:53;40.48;34.33;62.26;;
70245;Laerm;57637;49.272;8.590;2023-09-08T11:23:19;39.99;34.91;59.11;;
70245;Laerm;57637;49.272;8.590;2023-09-08T11:25:46;38.31;33.88;51.07;;
70245;Laerm;57637;49.272;8.590;2023-09-08T11:28:12;38.53;34.95;52.27;;
70245;Laerm;57637;49.272;8.590;2023-09-08T11:30:38;41.09;34.32;63.88;;
70245;Laerm;57637;49.272;8.590;2023-09-08T11:33:07;39.72;34.88;56.29;;
70245;Laerm;57637;49.272;8.590;2023-09-08T11:35:38;39.61;35.32;57.33;;
70245;Laerm;57637;49.272;8.590;2023-09-08T11:38:04;38.50;34.16;56.72;;
70245;Laerm;57637;49.272;8.590;2023-09-08T11:40:30;38.26;34.72;47.73;;
70245;Laerm;57637;49.272;8.590;2023-09-08T11:42:55;43.77;34.18;58.08;;
70245;Laerm;57637;49.272;8.590;2023-09-08T11:45:21;49.90;34.15;62.32;;
70245;Laerm;57637;49.272;8.590;2023-09-08T11:47:49;42.45;33.69;61.62;;
70245;Laerm;57637;49.272;8.590;2023-09-08T11:50:15;40.74;34.31;53.50;;
70245;Laerm;57637;49.272;8.590;2023-09-08T11:52:47;37.36;33.83;53.63;;
70245;Laerm;57637;49.272;8.590;2023-09-08T11:55:13;37.60;33.37;51.58;;
70245;Laerm;57637;49.272;8.590;2023-09-08T11:57:40;40.07;33.45;63.32;;
70245;Laerm;57637;49.272;8.590;2023-09-08T12:00:06;36.64;33.73;47.99;;
70245;Laerm;57637;49.272;8.590;2023-09-08T12:02:35;38.90;33.75;52.99;;
70245;Laerm;57637;49.272;8.590;2023-09-08T12:05:05;40.20;33.92;57.09;;
70245;Laerm;57637;49.272;8.590;2023-09-08T12:07:30;39.91;34.03;52.52;;
70245;Laerm;57637;49.272;8.590;2023-09-08T12:09:56;37.83;34.17;48.73;;
70245;Laerm;57637;49.272;8.590;2023-09-08T12:12:25;40.86;35.43;50.21;;
70245;Laerm;57637;49.272;8.590;2023-09-08T12:14:50;38.01;33.58;52.47;;
70245;Laerm;57637;49.272;8.590;2023-09-08T12:17:16;41.72;32.96;52.61;;
70245;Laerm;57637;49.272;8.590;2023-09-08T12:19:43;39.79;32.81;63.49;;
70245;Laerm;57637;49.272;8.590;2023-09-08T12:22:08;40.29;33.53;52.20;;
70245;Laerm;57637;49.272;8.590;2023-09-08T12:27:14;48.56;33.63;72.67;;
70245;Laerm;57637;49.272;8.590;2023-09-08T12:29:39;39.41;33.36;60.00;;
70245;Laerm;57637;49.272;8.590;2023-09-08T12:32:05;39.78;33.55;59.41;;
70245;Laerm;57637;49.272;8.590;2023-09-08T12:34:30;40.34;33.40;61.49;;
70245;Laerm;57637;49.272;8.590;2023-09-08T12:36:56;43.75;33.36;67.90;;
70245;Laerm;57637;49.272;8.590;2023-09-08T12:39:21;38.40;32.64;48.89;;
70245;Laerm;57637;49.272;8.590;2023-09-08T12:41:46;36.55;32.63;44.26;;
70245;Laerm;57637;49.272;8.590;2023-09-08T12:44:12;37.04;32.84;47.41;;
70245;Laerm;57637;49.272;8.590;2023-09-08T12:46:37;41.57;32.79;56.02;;
70245;Laerm;57637;49.272;8.590;2023-09-08T12:49:03;37.45;33.22;51.53;;
70245;Laerm;57637;49.272;8.590;2023-09-08T12:51:28;41.48;34.70;65.00;;
70245;Laerm;57637;49.272;8.590;2023-09-08T12:53:53;38.27;34.44;56.74;;
70245;Laerm;57637;49.272;8.590;2023-09-08T12:56:19;40.95;33.78;65.94;;
70245;Laerm;57637;49.272;8.590;2023-09-08T12:58:44;42.89;32.71;70.50;;
70245;Laerm;57637;49.272;8.590;2023-09-08T13:01:10;37.34;32.99;51.64;;
70245;Laerm;57637;49.272;8.590;2023-09-08T13:03:35;38.83;32.53;63.08;;
70245;Laerm;57637;49.272;8.590;2023-09-08T13:06:01;40.56;33.81;62.92;;
70245;Laerm;57637;49.272;8.590;2023-09-08T13:08:26;39.83;33.82;62.22;;
70245;Laerm;57637;49.272;8.590;2023-09-08T13:10:51;40.50;34.02;60.28;;
70245;Laerm;57637;49.272;8.590;2023-09-08T13:13:17;37.38;33.57;55.06;;
70245;Laerm;57637;49.272;8.590;2023-09-08T13:15:42;38.02;33.79;56.13;;
70245;Laerm;57637;49.272;8.590;2023-09-08T13:18:08;39.00;33.32;55.53;;
70245;Laerm;57637;49.272;8.590;2023-09-08T13:20:33;41.97;34.18;59.36;;
70245;Laerm;57637;49.272;8.590;2023-09-08T13:22:59;40.06;33.38;52.65;;
70245;Laerm;57637;49.272;8.590;2023-09-08T13:25:24;38.62;33.27;56.40;;
70245;Laerm;57637;49.272;8.590;2023-09-08T13:27:50;41.22;34.35;59.10;;
70245;Laerm;57637;49.272;8.590;2023-09-08T13:30:15;39.97;35.07;56.51;;
70245;Laerm;57637;49.272;8.590;2023-09-08T13:32:42;38.67;34.24;45.99;;
70245;Laerm;57637;49.272;8.590;2023-09-08T13:35:08;45.02;34.92;69.66;;
70245;Laerm;57637;49.272;8.590;2023-09-08T13:37:33;40.85;35.54;59.58;;
70245;Laerm;57637;49.272;8.590;2023-09-08T13:40:01;39.32;34.35;55.05;;
70245;Laerm;57637;49.272;8.590;2023-09-08T13:42:26;42.11;35.03;52.29;;
70245;Laerm;57637;49.272;8.590;2023-09-08T13:44:51;38.97;34.41;53.61;;
70245;Laerm;57637;49.272;8.590;2023-09-08T13:47:17;38.34;33.46;55.61;;
70245;Laerm;57637;49.272;8.590;2023-09-08T13:49:42;39.44;33.60;62.66;;
70245;Laerm;57637;49.272;8.590;2023-09-08T13:52:08;46.01;34.55;66.28;;
70245;Laerm;57637;49.272;8.590;2023-09-08T13:54:33;40.53;35.32;62.93;;